createdAt,value
2019-04-29T00:02:27.166Z,4.33
2019-04-29T00:05:00.943Z,4.67
2019-04-29T00:07:31.348Z,4.73
2019-04-29T00:10:01.796Z,4.50
2019-04-29T00:12:36.128Z,4.70
2019-04-29T00:15:20.116Z,4.20
2019-04-29T00:17:56.934Z,4.80
2019-04-29T00:20:46.356Z,5.63
2019-04-29T00:23:16.858Z,4.10
2019-04-29T00:25:47.295Z,5.17
2019-04-29T00:28:17.799Z,4.73
2019-04-29T00:30:48.183Z,4.77
2019-04-29T00:33:18.745Z,4.63
2019-04-29T00:35:49.011Z,5.03
2019-04-29T00:38:29.349Z,4.70
2019-04-29T00:41:17.223Z,4.47
2019-04-29T00:43:52.012Z,5.80
2019-04-29T00:46:22.405Z,4.70
2019-04-29T00:48:52.901Z,5.37
2019-04-29T00:51:23.215Z,4.70
2019-04-29T00:53:57.508Z,4.73
2019-04-29T00:56:27.881Z,4.50
2019-04-29T00:58:58.455Z,4.67
2019-04-29T01:01:28.850Z,4.63
2019-04-29T01:03:59.487Z,5.37
2019-04-29T01:06:29.802Z,4.93
2019-04-29T01:09:00.328Z,5.07
2019-04-29T01:11:30.762Z,4.67
2019-04-29T01:14:01.213Z,4.77
2019-04-29T01:16:31.525Z,4.50
2019-04-29T01:19:03.884Z,4.87
2019-04-29T01:21:34.107Z,4.80
2019-04-29T01:24:04.753Z,4.50
2019-04-29T01:26:52.750Z,4.33
2019-04-29T01:29:23.966Z,4.37
2019-04-29T01:31:54.393Z,5.27
2019-04-29T01:34:29.691Z,4.73
2019-04-29T01:36:59.968Z,4.53
2019-04-29T01:39:38.454Z,4.70
2019-04-29T01:42:21.752Z,5.30
2019-04-29T01:44:52.227Z,4.93
2019-04-29T01:47:22.691Z,5.00
2019-04-29T01:49:53.165Z,4.73
2019-04-29T01:52:23.539Z,5.57
2019-04-29T01:54:54.163Z,4.80
2019-04-29T01:57:24.562Z,4.90
2019-04-29T01:59:55.056Z,4.40
2019-04-29T02:02:25.328Z,4.87
2019-04-29T02:04:56.103Z,4.57
2019-04-29T02:07:26.528Z,4.80
2019-04-29T02:10:22.053Z,4.83
2019-04-29T02:12:52.656Z,5.53
2019-04-29T02:15:22.984Z,4.90
2019-04-29T02:17:53.360Z,4.93
2019-04-29T02:20:23.807Z,4.60
2019-04-29T02:23:14.591Z,4.77
2019-04-29T02:25:45.683Z,4.70
2019-04-29T02:28:16.358Z,4.40
2019-04-29T02:30:49.519Z,4.53
2019-04-29T02:33:20.084Z,5.00
2019-04-29T02:35:50.430Z,5.37
2019-04-29T02:38:48.970Z,4.87
2019-04-29T02:41:50.200Z,5.07
2019-04-29T02:44:20.756Z,4.97
2019-04-29T02:46:51.069Z,5.30
2019-04-29T02:49:21.489Z,4.63
2019-04-29T02:51:53.115Z,4.83
2019-04-29T02:54:25.141Z,4.83
2019-04-29T02:57:18.164Z,4.90
2019-04-29T02:59:51.613Z,5.53
2019-04-29T03:02:42.974Z,5.73
2019-04-29T03:05:16.500Z,6.10
2019-04-29T03:07:47.072Z,5.90
2019-04-29T03:10:17.570Z,6.60
2019-04-29T03:12:48.007Z,6.60
2019-04-29T03:15:32.577Z,7.10
2019-04-29T03:18:03.235Z,7.57
2019-04-29T03:20:45.923Z,8.43
2019-04-29T03:23:20.783Z,8.83
2019-04-29T03:25:51.171Z,8.57
2019-04-29T03:28:21.436Z,7.23
2019-04-29T03:30:51.889Z,6.87
2019-04-29T03:33:22.255Z,5.80
2019-04-29T03:35:52.637Z,5.70
2019-04-29T03:38:22.993Z,5.80
2019-04-29T03:40:53.435Z,5.70
2019-04-29T03:43:23.785Z,6.10
2019-04-29T03:45:54.174Z,5.93
2019-04-29T03:48:24.468Z,5.40
2019-04-29T03:50:54.852Z,5.70
2019-04-29T03:53:28.227Z,5.93
2019-04-29T03:55:57.133Z,5.47
2019-04-29T03:58:27.444Z,5.63
2019-04-29T04:01:09.255Z,5.80
2019-04-29T04:03:43.776Z,5.70
2019-04-29T04:06:29.522Z,5.17
2019-04-29T04:09:09.565Z,5.23
2019-04-29T04:11:39.919Z,5.13
2019-04-29T04:14:10.245Z,5.13
2019-04-29T04:16:58.080Z,6.00
2019-04-29T04:19:29.652Z,4.83
2019-04-29T04:21:59.907Z,5.73
2019-04-29T04:24:30.292Z,5.53
2019-04-29T04:27:00.678Z,5.87
2019-04-29T04:29:31.021Z,5.87
2019-04-29T04:32:01.247Z,5.03
2019-04-29T04:34:31.564Z,5.63
2019-04-29T04:37:01.876Z,6.77
2019-04-29T04:39:33.999Z,5.20
2019-04-29T04:42:04.250Z,5.77
2019-04-29T04:44:49.958Z,6.00
2019-04-29T04:47:20.940Z,5.97
2019-04-29T04:49:51.394Z,6.03
2019-04-29T04:52:21.647Z,6.10
2019-04-29T04:54:53.603Z,6.27
2019-04-29T04:57:24.080Z,5.97
2019-04-29T04:59:54.467Z,6.07
2019-04-29T05:02:26.008Z,6.63
2019-04-29T05:04:56.614Z,6.93
2019-04-29T05:07:26.891Z,6.77
2019-04-29T05:09:57.325Z,6.67
2019-04-29T05:12:27.576Z,6.90
2019-04-29T05:14:57.967Z,6.47
2019-04-29T05:17:28.259Z,6.37
2019-04-29T05:19:58.553Z,6.47
2019-04-29T05:22:28.863Z,6.30
2019-04-29T05:24:59.215Z,6.07
2019-04-29T05:27:29.548Z,6.30
2019-04-29T05:29:59.859Z,6.83
2019-04-29T05:32:30.183Z,7.10
2019-04-29T05:35:02.752Z,8.67
2019-04-29T05:37:43.044Z,7.53
2019-04-29T05:40:32.583Z,8.23
2019-04-29T05:43:05.105Z,8.50
2019-04-29T05:45:46.213Z,7.00
2019-04-29T05:48:18.102Z,8.23
2019-04-29T05:50:57.395Z,7.57
2019-04-29T05:53:31.061Z,7.80
2019-04-29T05:56:01.635Z,7.33
2019-04-29T05:58:32.729Z,8.33
2019-04-29T06:01:18.104Z,8.13
2019-04-29T06:03:48.712Z,8.13
2019-04-29T06:06:19.025Z,7.17
2019-04-29T06:08:49.539Z,8.20
2019-04-29T06:11:22.971Z,7.50
2019-04-29T06:13:52.323Z,7.53
2019-04-29T06:16:22.811Z,7.57
2019-04-29T06:18:59.694Z,6.83
2019-04-29T06:21:25.351Z,6.83
2019-04-29T06:23:59.335Z,6.70
2019-04-29T06:26:28.003Z,6.33
2019-04-29T06:28:58.519Z,7.20
2019-04-29T06:31:28.911Z,6.80
2019-04-29T06:34:00.616Z,5.93
2019-04-29T06:36:31.954Z,6.30
2019-04-29T06:39:02.611Z,5.70
2019-04-29T06:41:34.598Z,6.47
2019-04-29T06:44:11.659Z,5.93
2019-04-29T06:46:37.553Z,5.10
2019-04-29T06:49:10.314Z,5.80
2019-04-29T06:51:40.169Z,4.83
2019-04-29T06:54:10.585Z,5.23
2019-04-29T06:56:40.914Z,5.50
2019-04-29T06:59:11.980Z,5.13
2019-04-29T07:01:43.510Z,4.73
2019-04-29T07:04:13.899Z,5.00
2019-04-29T07:06:56.727Z,4.70
2019-04-29T07:09:16.279Z,4.63
2019-04-29T07:11:46.712Z,4.57
2019-04-29T07:14:17.233Z,4.50
2019-04-29T07:16:47.577Z,4.73
2019-04-29T07:19:18.212Z,3.87
2019-04-29T07:21:51.491Z,4.50
2019-04-29T07:24:20.607Z,4.20
2019-04-29T07:26:50.897Z,4.27
2019-04-29T07:29:25.538Z,4.90
2019-04-29T07:31:53.475Z,4.43
2019-04-29T07:34:23.947Z,4.13
2019-04-29T07:36:57.553Z,4.10
2019-04-29T07:39:31.240Z,4.80
2019-04-29T07:41:58.727Z,4.07
2019-04-29T07:44:43.664Z,4.50
2019-04-29T07:47:04.923Z,3.97
2019-04-29T07:49:35.471Z,3.87
2019-04-29T07:52:09.773Z,4.60
2019-04-29T07:54:38.122Z,4.03
2019-04-29T07:57:12.200Z,4.57
2019-04-29T07:59:40.786Z,4.30
2019-04-29T08:02:11.132Z,4.57
2019-04-29T08:04:41.489Z,5.10
2019-04-29T08:07:11.858Z,5.00
2019-04-29T08:09:44.233Z,5.10
2019-04-29T08:12:14.524Z,4.70
2019-04-29T08:14:45.363Z,5.10
2019-04-29T08:17:15.785Z,5.33
2019-04-29T08:19:46.063Z,5.73
2019-04-29T08:22:18.290Z,4.83
2019-04-29T08:24:50.387Z,5.53
2019-04-29T08:27:20.391Z,5.70
2019-04-29T08:29:50.734Z,4.97
2019-04-29T08:32:21.105Z,5.63
2019-04-29T08:34:53.580Z,5.20
2019-04-29T08:37:24.979Z,4.70
2019-04-29T08:40:14.732Z,5.53
2019-04-29T08:42:30.953Z,5.77
2019-04-29T08:45:11.955Z,5.13
2019-04-29T08:47:44.099Z,4.93
2019-04-29T08:50:14.493Z,4.93
2019-04-29T08:52:44.947Z,5.63
2019-04-29T08:55:15.586Z,6.23
2019-04-29T08:57:46.831Z,6.00
2019-04-29T09:00:17.270Z,5.63
2019-04-29T09:02:49.335Z,5.27
2019-04-29T09:05:19.754Z,5.27
2019-04-29T09:07:52.484Z,4.33
2019-04-29T09:10:22.521Z,5.60
2019-04-29T09:12:53.128Z,5.77
2019-04-29T09:15:23.463Z,6.77
2019-04-29T09:17:53.908Z,6.50
2019-04-29T09:20:24.181Z,6.93
2019-04-29T09:22:59.135Z,7.30
2019-04-29T09:26:01.937Z,6.97
2019-04-29T09:28:27.161Z,6.97
2019-04-29T09:30:52.990Z,6.50
2019-04-29T09:33:23.392Z,6.53
2019-04-29T09:35:53.762Z,6.13
2019-04-29T09:38:24.369Z,6.33
2019-04-29T09:41:01.565Z,5.93
2019-04-29T09:43:51.032Z,5.60
2019-04-29T09:46:25.193Z,6.00
2019-04-29T09:48:55.639Z,6.63
2019-04-29T09:51:27.764Z,6.37
2019-04-29T09:53:58.302Z,7.90
2019-04-29T09:56:28.725Z,5.73
2019-04-29T09:59:16.521Z,5.77
2019-04-29T10:01:54.973Z,5.10
2019-04-29T10:04:35.731Z,5.67
2019-04-29T10:07:06.479Z,5.13
2019-04-29T10:09:36.885Z,4.97
2019-04-29T10:12:07.243Z,5.73
2019-04-29T10:14:38.699Z,5.47
2019-04-29T10:17:25.284Z,4.80
2019-04-29T10:20:17.467Z,5.47
2019-04-29T10:22:50.223Z,5.00
2019-04-29T10:25:20.234Z,5.10
2019-04-29T10:27:50.703Z,4.80
2019-04-29T10:30:22.736Z,4.63
2019-04-29T10:32:53.254Z,5.47
2019-04-29T10:35:23.664Z,4.87
2019-04-29T10:37:54.034Z,4.87
2019-04-29T10:40:43.216Z,5.50
2019-04-29T10:43:19.042Z,4.83
2019-04-29T10:46:11.679Z,4.73
2019-04-29T10:49:05.378Z,4.33
2019-04-29T10:51:35.644Z,4.90
2019-04-29T10:54:06.107Z,4.20
2019-04-29T10:56:39.392Z,4.40
2019-04-29T10:59:11.140Z,4.00
2019-04-29T11:02:20.156Z,5.00
2019-04-29T11:04:52.473Z,4.33
2019-04-29T11:07:35.496Z,4.17
2019-04-29T11:10:24.406Z,4.40
2019-04-29T11:12:46.127Z,3.73
2019-04-29T11:15:17.515Z,3.60
2019-04-29T11:17:48.118Z,3.57
2019-04-29T11:20:21.362Z,3.40
2019-04-29T11:22:56.986Z,3.53
2019-04-29T11:25:52.385Z,3.20
2019-04-29T11:28:23.575Z,3.17
2019-04-29T11:30:56.040Z,2.90
2019-04-29T11:33:35.655Z,3.00
2019-04-29T11:36:07.402Z,4.60
2019-04-29T11:38:38.675Z,3.20
2019-04-29T11:41:12.284Z,43.90
2019-04-29T11:43:41.380Z,17.93
2019-04-29T11:46:14.369Z,5.60
2019-04-29T11:48:44.745Z,36.90
2019-04-29T11:51:24.669Z,18.93
2019-04-29T11:53:55.170Z,16.67
2019-04-29T11:56:25.631Z,6.33
2019-04-29T11:59:02.747Z,21.63
2019-04-29T12:01:54.990Z,19.23
2019-04-29T12:04:34.632Z,27.93
2019-04-29T12:07:05.155Z,10.40
2019-04-29T12:09:35.819Z,6.70
2019-04-29T12:12:07.959Z,6.20
2019-04-29T12:15:09.003Z,5.23
2019-04-29T12:17:57.684Z,5.00
2019-04-29T12:20:39.665Z,3.80
2019-04-29T12:23:11.180Z,4.20
2019-04-29T12:25:42.212Z,3.67
2019-04-29T12:28:19.298Z,3.20
2019-04-29T12:30:46.549Z,3.03
2019-04-29T12:33:25.262Z,3.60
2019-04-29T12:36:03.185Z,3.13
2019-04-29T12:38:52.504Z,3.00
2019-04-29T12:41:52.669Z,3.17
2019-04-29T12:44:35.075Z,3.20
2019-04-29T12:47:26.854Z,3.03
2019-04-29T12:49:54.107Z,3.97
2019-04-29T12:52:24.571Z,2.83
2019-04-29T12:54:55.163Z,2.93
2019-04-29T12:57:25.675Z,3.17
2019-04-29T12:59:56.324Z,2.97
2019-04-29T13:02:48.710Z,2.97
2019-04-29T13:05:57.270Z,2.70
2019-04-29T13:08:26.811Z,2.50
2019-04-29T13:11:02.437Z,2.60
2019-04-29T13:13:32.881Z,2.60
2019-04-29T13:16:22.054Z,2.77
2019-04-29T13:19:11.638Z,2.77
2019-04-29T13:21:39.152Z,2.10
2019-04-29T13:24:18.201Z,2.63
2019-04-29T13:26:42.977Z,2.20
2019-04-29T13:29:26.203Z,2.63
2019-04-29T13:31:44.354Z,2.37
2019-04-29T13:34:35.046Z,2.90
2019-04-29T13:37:06.482Z,2.40
2019-04-29T13:39:38.502Z,2.57
2019-04-29T13:41:58.265Z,2.77
2019-04-29T13:44:28.169Z,2.70
2019-04-29T13:47:17.559Z,2.80
2019-04-29T13:50:38.847Z,2.10
2019-04-29T13:52:57.374Z,2.47
2019-04-29T13:55:47.330Z,2.63
2019-04-29T13:57:59.679Z,2.83
2019-04-29T14:00:49.494Z,13.07
2019-04-29T14:03:24.049Z,3.80
2019-04-29T14:06:03.848Z,3.43
2019-04-29T14:08:28.771Z,1.97
2019-04-29T14:10:58.981Z,6.10
2019-04-29T14:13:29.426Z,4.13
2019-04-29T14:15:59.986Z,9.97
2019-04-29T14:18:30.381Z,23.43
2019-04-29T14:21:01.270Z,18.47
2019-04-29T14:23:32.727Z,48.83
2019-04-29T14:26:03.461Z,27.40
2019-04-29T14:28:33.872Z,15.00
2019-04-29T14:31:04.534Z,3.03
2019-04-29T14:33:39.853Z,4.17
2019-04-29T14:36:10.831Z,2.80
2019-04-29T14:38:42.654Z,3.27
2019-04-29T14:41:14.365Z,2.60
2019-04-29T14:44:01.669Z,3.50
2019-04-29T14:46:57.035Z,2.80
2019-04-29T14:49:30.594Z,2.80
2019-04-29T14:52:03.351Z,2.80
2019-04-29T14:54:36.817Z,3.97
2019-04-29T14:57:08.840Z,3.60
2019-04-29T14:59:37.993Z,2.70
2019-04-29T15:02:16.974Z,2.63
2019-04-29T15:04:46.330Z,3.00
2019-04-29T15:07:17.077Z,6.07
2019-04-29T15:09:58.246Z,6.90
2019-04-29T15:12:52.068Z,41.67
2019-04-29T15:16:03.809Z,8.90
2019-04-29T15:18:50.181Z,13.70
2019-04-29T15:21:43.586Z,10.37
2019-04-29T15:24:13.250Z,7.37
2019-04-29T15:26:43.804Z,8.03
2019-04-29T15:29:14.057Z,4.77
2019-04-29T15:31:47.065Z,7.03
2019-04-29T15:34:16.647Z,7.20
2019-04-29T15:36:47.345Z,6.93
2019-04-29T15:39:17.846Z,3.47
2019-04-29T15:41:48.411Z,3.60
2019-04-29T15:44:22.206Z,4.30
2019-04-29T15:46:51.402Z,4.63
2019-04-29T15:49:24.827Z,4.37
2019-04-29T15:51:53.991Z,4.23
2019-04-29T15:54:26.156Z,4.20
2019-04-29T15:56:56.383Z,6.00
2019-04-29T15:59:26.700Z,8.07
2019-04-29T16:01:59.219Z,7.50
2019-04-29T16:04:34.101Z,5.00
2019-04-29T16:07:30.237Z,7.23
2019-04-29T16:10:14.586Z,7.40
2019-04-29T16:12:50.939Z,6.90
2019-04-29T16:15:21.515Z,7.53
2019-04-29T16:17:52.048Z,6.90
2019-04-29T16:20:22.413Z,6.70
2019-04-29T16:22:54.075Z,5.90
2019-04-29T16:25:25.185Z,7.40
2019-04-29T16:27:55.947Z,6.50
2019-04-29T16:30:31.883Z,6.93
2019-04-29T16:32:58.454Z,6.03
2019-04-29T16:35:34.658Z,11.90
2019-04-29T16:38:05.620Z,10.73
2019-04-29T16:40:41.275Z,11.50
2019-04-29T16:43:37.451Z,15.00
2019-04-29T16:46:14.425Z,23.67
2019-04-29T16:48:44.799Z,18.13
2019-04-29T16:51:16.701Z,10.50
2019-04-29T16:53:47.448Z,9.93
2019-04-29T16:56:17.749Z,9.27
2019-04-29T16:58:48.572Z,5.67
2019-04-29T17:01:19.173Z,6.37
2019-04-29T17:03:49.992Z,7.83
2019-04-29T17:06:20.583Z,6.60
2019-04-29T17:09:23.281Z,6.80
2019-04-29T17:11:56.339Z,7.13
2019-04-29T17:14:26.861Z,5.40
2019-04-29T17:16:57.329Z,6.07
2019-04-29T17:19:27.708Z,6.97
2019-04-29T17:22:24.304Z,10.80
2019-04-29T17:24:30.275Z,9.90
2019-04-29T17:27:20.158Z,12.97
2019-04-29T17:30:09.162Z,12.13
2019-04-29T17:32:52.750Z,13.73
2019-04-29T17:37:55.875Z,11.77
2019-04-29T17:40:26.752Z,11.00
2019-04-29T17:43:12.567Z,9.50
2019-04-29T17:45:52.367Z,8.00
2019-04-29T17:48:30.740Z,9.53
2019-04-29T17:51:04.652Z,12.23
2019-04-29T17:53:39.752Z,8.73
2019-04-29T17:56:20.536Z,8.37
2019-04-29T17:58:58.258Z,8.97
2019-04-29T18:02:01.420Z,7.57
2019-04-29T18:04:57.431Z,8.53
2019-04-29T18:07:35.196Z,10.10
2019-04-29T18:10:29.663Z,12.37
2019-04-29T18:13:00.319Z,13.60
2019-04-29T18:15:42.428Z,9.97
2019-04-29T18:18:09.887Z,13.17
2019-04-29T18:21:10.239Z,15.63
2019-04-29T18:23:59.876Z,13.67
2019-04-29T18:26:38.282Z,12.90
2019-04-29T18:29:09.010Z,13.03
2019-04-29T18:31:39.544Z,10.23
2019-04-29T18:34:10.039Z,10.63
2019-04-29T18:36:43.380Z,9.47
2019-04-29T18:39:20.198Z,9.43
2019-04-29T18:41:50.496Z,9.43
2019-04-29T18:44:21.077Z,7.30
2019-04-29T18:46:53.890Z,6.80
2019-04-29T18:49:25.898Z,7.20
2019-04-29T18:51:58.027Z,7.80
2019-04-29T18:54:28.453Z,7.50
2019-04-29T18:56:58.776Z,6.90
2019-04-29T18:59:33.440Z,6.50
2019-04-29T19:02:07.881Z,7.57
2019-04-29T19:04:39.059Z,8.70
2019-04-29T19:07:09.450Z,7.40
2019-04-29T19:09:41.016Z,7.40
2019-04-29T19:12:11.348Z,6.83
2019-04-29T19:14:41.759Z,6.47
2019-04-29T19:17:12.030Z,6.73
2019-04-29T19:19:42.475Z,7.20
2019-04-29T19:22:12.829Z,8.80
2019-04-29T19:24:46.185Z,8.57
2019-04-29T19:27:15.233Z,8.33
2019-04-29T19:29:45.685Z,8.27
2019-04-29T19:32:18.862Z,9.13
2019-04-29T19:34:50.037Z,9.23
2019-04-29T19:37:20.279Z,7.33
2019-04-29T19:39:52.531Z,9.30
2019-04-29T19:42:29.063Z,7.67
2019-04-29T19:44:55.490Z,7.53
2019-04-29T19:47:28.032Z,7.87
2019-04-29T19:49:58.177Z,11.10
2019-04-29T19:52:31.675Z,8.97
2019-04-29T19:55:01.721Z,10.97
2019-04-29T19:57:37.972Z,10.17
2019-04-29T20:00:07.361Z,13.70
2019-04-29T20:02:45.397Z,13.93
2019-04-29T20:05:23.917Z,19.13
2019-04-29T20:07:56.455Z,23.37
2019-04-29T20:10:29.009Z,27.17
2019-04-29T20:12:58.690Z,29.03
2019-04-29T20:15:34.016Z,28.83
2019-04-29T20:18:40.158Z,21.27
2019-04-29T20:21:20.871Z,20.40
2019-04-29T20:23:46.623Z,18.00
2019-04-29T20:26:23.252Z,11.67
2019-04-29T20:28:51.140Z,11.23
2019-04-29T20:31:22.358Z,10.33
2019-04-29T20:33:56.052Z,11.60
2019-04-29T20:36:38.170Z,12.10
2019-04-29T20:38:58.800Z,13.10
2019-04-29T20:41:40.162Z,10.90
2019-04-29T20:44:05.804Z,11.13
2019-04-29T20:46:43.177Z,10.90
2019-04-29T20:49:06.864Z,10.10
2019-04-29T20:51:48.913Z,10.40
2019-04-29T20:54:19.029Z,11.77
2019-04-29T20:56:47.688Z,11.60
2019-04-29T20:59:18.266Z,12.43
2019-04-29T21:01:56.878Z,11.33
2019-04-29T21:04:32.004Z,12.30
2019-04-29T21:07:02.369Z,11.77
2019-04-29T21:09:30.439Z,12.23
2019-04-29T21:12:20.407Z,12.17
2019-04-29T21:14:52.932Z,12.57
2019-04-29T21:17:29.420Z,11.83
2019-04-29T21:19:55.731Z,10.30
2019-04-29T21:22:26.521Z,11.33
2019-04-29T21:24:56.827Z,10.00
2019-04-29T21:27:27.387Z,10.73
2019-04-29T21:29:57.759Z,10.40
2019-04-29T21:32:30.597Z,9.93
2019-04-29T21:35:14.576Z,9.90
2019-04-29T21:37:49.730Z,11.40
2019-04-29T21:40:27.030Z,12.03
2019-04-29T21:43:01.375Z,12.17
2019-04-29T21:45:31.823Z,12.33
2019-04-29T21:48:04.611Z,11.77
2019-04-29T21:50:38.005Z,11.90
2019-04-29T21:53:09.207Z,14.20
2019-04-29T21:55:39.747Z,12.87
2019-04-29T21:58:10.155Z,13.27
2019-04-29T22:00:45.543Z,16.70
2019-04-29T22:03:19.821Z,14.57
2019-04-29T22:05:49.195Z,13.43
2019-04-29T22:08:25.024Z,15.13
2019-04-29T22:10:52.852Z,14.27
2019-04-29T22:13:24.865Z,15.00
2019-04-29T22:15:55.431Z,22.83
2019-04-29T22:18:25.841Z,14.03
2019-04-29T22:20:56.438Z,16.93
2019-04-29T22:23:26.988Z,14.83
2019-04-29T22:25:57.522Z,13.43
2019-04-29T22:28:28.079Z,12.97
2019-04-29T22:30:58.428Z,13.63
2019-04-29T22:33:29.798Z,14.70
2019-04-29T22:36:01.101Z,14.23
2019-04-29T22:38:31.599Z,13.17
2019-04-29T22:41:05.055Z,12.50
2019-04-29T22:43:52.359Z,13.60
2019-04-29T22:46:22.784Z,12.90
2019-04-29T22:48:53.171Z,13.17
2019-04-29T22:51:25.314Z,13.53
2019-04-29T22:53:56.010Z,13.33
2019-04-29T22:56:27.866Z,13.57
2019-04-29T22:58:58.350Z,13.97
2019-04-29T23:01:28.851Z,14.33
2019-04-29T23:03:59.252Z,15.00
2019-04-29T23:06:29.777Z,16.33
2019-04-29T23:09:00.068Z,17.57
2019-04-29T23:11:30.550Z,16.73
2019-04-29T23:14:01.706Z,15.63
2019-04-29T23:16:35.652Z,16.37
2019-04-29T23:19:05.363Z,16.90
2019-04-29T23:21:55.899Z,16.13
2019-04-29T23:24:42.239Z,20.33
2019-04-29T23:27:16.313Z,17.27
2019-04-29T23:29:44.999Z,16.73
2019-04-29T23:32:15.635Z,17.03
2019-04-29T23:34:46.019Z,17.10
2019-04-29T23:37:19.394Z,16.23
2019-04-29T23:39:48.571Z,18.33
2019-04-29T23:42:18.999Z,17.10
2019-04-29T23:44:49.370Z,19.83
2019-04-29T23:47:22.983Z,19.70
2019-04-29T23:49:53.284Z,20.00
2019-04-29T23:52:23.925Z,19.07
2019-04-29T23:54:54.187Z,18.87
2019-04-29T23:57:33.059Z,18.03
